createdAt,value
2018-01-17T00:00:09.809Z,2.80
2018-01-17T00:02:37.377Z,2.80
2018-01-17T00:05:04.982Z,2.80
2018-01-17T00:07:32.549Z,2.80
2018-01-17T00:10:00.122Z,2.70
2018-01-17T00:12:27.716Z,2.70
2018-01-17T00:14:55.291Z,2.70
2018-01-17T00:17:22.936Z,2.60
2018-01-17T00:19:50.487Z,2.60
2018-01-17T00:22:18.091Z,2.60
2018-01-17T00:24:46.393Z,2.50
2018-01-17T00:27:13.956Z,2.50
2018-01-17T00:29:41.516Z,2.60
2018-01-17T00:32:09.089Z,2.60
2018-01-17T00:34:36.655Z,2.60
2018-01-17T00:37:04.221Z,2.60
2018-01-17T00:39:31.792Z,2.70
2018-01-17T00:41:59.382Z,2.70
2018-01-17T00:44:27.711Z,2.80
2018-01-17T00:46:55.278Z,2.80
2018-01-17T00:49:22.953Z,2.80
2018-01-17T00:51:50.513Z,2.90
2018-01-17T00:54:18.091Z,2.90
2018-01-17T00:56:45.639Z,3.00
2018-01-17T00:59:13.365Z,3.10
2018-01-17T01:01:40.914Z,3.20
2018-01-17T01:04:08.493Z,3.20
2018-01-17T01:06:36.043Z,3.20
2018-01-17T01:09:03.604Z,3.20
2018-01-17T01:11:31.165Z,3.20
2018-01-17T01:13:58.731Z,3.20
2018-01-17T01:16:26.281Z,3.30
2018-01-17T01:18:53.848Z,3.30
2018-01-17T01:21:21.413Z,3.40
2018-01-17T01:23:48.981Z,3.40
2018-01-17T01:26:17.397Z,3.50
2018-01-17T01:28:45.104Z,3.50
2018-01-17T01:31:12.669Z,3.50
2018-01-17T01:33:40.224Z,3.50
2018-01-17T01:36:07.780Z,3.50
2018-01-17T01:38:35.344Z,3.60
2018-01-17T01:43:45.327Z,3.60
2018-01-17T01:46:12.902Z,3.50
2018-01-17T01:49:01.739Z,3.40
2018-01-17T01:51:30.891Z,3.40
2018-01-17T01:53:58.430Z,3.30
2018-01-17T01:56:26.001Z,3.10
2018-01-17T01:58:53.650Z,3.00
2018-01-17T02:01:21.565Z,2.90
2018-01-17T02:03:49.908Z,2.70
2018-01-17T02:06:17.526Z,2.70
2018-01-17T02:08:45.103Z,2.50
2018-01-17T02:11:12.682Z,2.40
2018-01-17T02:13:40.309Z,2.30
2018-01-17T02:16:07.864Z,2.20
2018-01-17T02:18:35.428Z,2.10
2018-01-17T02:21:02.988Z,1.90
2018-01-17T02:23:30.564Z,1.80
2018-01-17T02:25:58.130Z,1.70
2018-01-17T02:28:26.465Z,1.40
2018-01-17T02:30:54.831Z,1.20
2018-01-17T02:33:22.399Z,1.20
2018-01-17T02:35:49.944Z,1.00
2018-01-17T02:38:17.534Z,0.90
2018-01-17T02:40:45.872Z,0.70
2018-01-17T02:43:13.458Z,0.70
2018-01-17T02:45:41.049Z,0.70
2018-01-17T02:48:08.613Z,0.70
2018-01-17T02:50:36.169Z,0.70
2018-01-17T02:53:03.749Z,0.70
2018-01-17T02:55:31.291Z,0.70
2018-01-17T02:57:58.898Z,0.80
2018-01-17T03:00:26.440Z,0.80
2018-01-17T03:02:54.069Z,0.80
2018-01-17T03:05:22.061Z,0.80
2018-01-17T03:07:49.610Z,0.90
2018-01-17T03:10:17.294Z,0.90
2018-01-17T03:12:44.863Z,0.90
2018-01-17T03:15:12.436Z,0.90
2018-01-17T03:17:40.032Z,0.90
2018-01-17T03:20:08.360Z,0.90
2018-01-17T03:22:35.949Z,0.90
2018-01-17T03:25:04.165Z,0.90
2018-01-17T03:27:32.306Z,0.90
2018-01-17T03:29:59.929Z,1.00
2018-01-17T03:32:27.578Z,1.00
2018-01-17T03:34:55.127Z,1.00
2018-01-17T03:37:22.709Z,1.00
2018-01-17T03:39:50.260Z,1.00
2018-01-17T03:42:17.829Z,1.00
2018-01-17T03:44:45.384Z,1.00
2018-01-17T03:47:12.958Z,1.00
2018-01-17T03:49:40.523Z,0.90
2018-01-17T03:52:08.093Z,0.90
2018-01-17T03:54:35.657Z,0.90
2018-01-17T03:57:03.232Z,0.90
2018-01-17T03:59:30.820Z,1.00
2018-01-17T04:01:59.176Z,1.00
2018-01-17T04:04:26.738Z,1.00
2018-01-17T04:06:54.313Z,1.00
2018-01-17T04:09:22.660Z,1.10
2018-01-17T04:11:50.215Z,1.10
2018-01-17T04:14:18.225Z,1.20
2018-01-17T04:16:45.753Z,1.20
2018-01-17T04:19:15.545Z,1.20
2018-01-17T04:21:43.093Z,1.20
2018-01-17T04:24:10.661Z,1.20
2018-01-17T04:26:38.988Z,1.30
2018-01-17T04:29:07.781Z,1.30
2018-01-17T04:31:36.118Z,1.40
2018-01-17T04:34:05.669Z,1.30
2018-01-17T04:36:33.257Z,1.40
2018-01-17T04:39:00.824Z,1.40
2018-01-17T04:41:28.388Z,1.40
2018-01-17T04:43:55.964Z,1.40
2018-01-17T04:46:23.589Z,1.40
2018-01-17T04:48:51.220Z,1.40
2018-01-17T04:51:18.857Z,1.40
2018-01-17T04:53:46.422Z,1.50
2018-01-17T04:56:14.046Z,1.50
2018-01-17T04:58:41.608Z,1.50
2018-01-17T05:01:09.181Z,1.50
2018-01-17T05:03:36.826Z,1.50
2018-01-17T05:06:04.384Z,1.40
2018-01-17T05:08:31.956Z,1.40
2018-01-17T05:10:59.556Z,1.40
2018-01-17T05:13:27.295Z,1.20
2018-01-17T05:15:54.883Z,1.20
2018-01-17T05:18:22.512Z,1.20
2018-01-17T05:20:50.071Z,1.20
2018-01-17T05:23:17.634Z,1.20
2018-01-17T05:25:46.127Z,1.30
2018-01-17T05:28:13.685Z,1.20
2018-01-17T05:30:41.232Z,1.30
2018-01-17T05:33:08.836Z,1.30
2018-01-17T05:35:36.384Z,1.20
2018-01-17T05:38:03.927Z,1.20
2018-01-17T05:40:31.504Z,1.20
2018-01-17T05:42:59.064Z,1.30
2018-01-17T05:45:26.633Z,1.20
2018-01-17T05:47:54.202Z,1.30
2018-01-17T05:50:21.778Z,1.30
2018-01-17T05:52:50.106Z,1.30
2018-01-17T05:55:17.673Z,1.30
2018-01-17T05:57:45.227Z,1.30
2018-01-17T06:00:12.813Z,1.30
2018-01-17T06:02:40.392Z,1.30
2018-01-17T06:05:07.960Z,1.30
2018-01-17T06:07:36.284Z,1.30
2018-01-17T06:10:03.869Z,1.30
2018-01-17T06:12:31.440Z,1.30
2018-01-17T06:14:59.004Z,1.30
2018-01-17T06:17:26.579Z,1.20
2018-01-17T06:19:54.901Z,1.20
2018-01-17T06:22:22.488Z,1.20
2018-01-17T06:24:50.048Z,1.10
2018-01-17T06:27:17.690Z,1.20
2018-01-17T06:29:45.265Z,1.10
2018-01-17T06:32:12.853Z,1.10
2018-01-17T06:34:40.417Z,1.10
2018-01-17T06:37:07.994Z,1.10
2018-01-17T06:39:36.324Z,1.20
2018-01-17T06:42:03.905Z,1.20
2018-01-17T06:44:31.479Z,1.20
2018-01-17T06:46:59.049Z,1.30
2018-01-17T06:49:27.380Z,1.20
2018-01-17T06:51:54.937Z,1.20
2018-01-17T06:54:22.504Z,1.30
2018-01-17T06:56:50.068Z,1.30
2018-01-17T06:59:17.653Z,1.30
2018-01-17T07:01:45.205Z,1.20
2018-01-17T07:04:12.765Z,1.20
2018-01-17T07:06:40.366Z,1.20
2018-01-17T07:09:08.695Z,1.20
2018-01-17T07:11:36.268Z,1.20
2018-01-17T07:14:03.821Z,1.20
2018-01-17T07:16:31.398Z,1.20
2018-01-17T07:18:59.013Z,1.20
2018-01-17T07:21:26.573Z,1.20
2018-01-17T07:23:54.134Z,1.30
2018-01-17T07:26:21.724Z,1.30
2018-01-17T07:28:49.281Z,1.30
2018-01-17T07:31:16.849Z,1.30
2018-01-17T07:33:44.414Z,1.20
2018-01-17T07:36:12.741Z,1.20
2018-01-17T07:38:40.289Z,1.20
2018-01-17T07:41:07.876Z,1.20
2018-01-17T07:43:35.418Z,1.20
2018-01-17T07:46:02.968Z,1.30
2018-01-17T07:48:31.284Z,1.20
2018-01-17T07:50:59.615Z,1.20
2018-01-17T07:53:27.946Z,1.30
2018-01-17T07:55:55.577Z,1.20
2018-01-17T07:58:23.148Z,1.30
2018-01-17T08:00:50.718Z,1.40
2018-01-17T08:03:18.285Z,1.50
2018-01-17T08:05:45.942Z,1.50
2018-01-17T08:08:13.521Z,1.50
2018-01-17T08:10:41.153Z,1.50
2018-01-17T08:13:08.725Z,1.50
2018-01-17T08:15:36.292Z,1.50
2018-01-17T08:18:03.861Z,1.50
2018-01-17T08:20:31.552Z,1.50
2018-01-17T08:22:59.341Z,1.60
2018-01-17T08:25:27.693Z,1.50
2018-01-17T08:27:55.242Z,1.50
2018-01-17T08:30:22.843Z,1.50
2018-01-17T08:32:51.164Z,1.30
2018-01-17T08:35:18.759Z,1.30
2018-01-17T08:37:46.325Z,1.20
2018-01-17T08:40:13.906Z,1.10
2018-01-17T08:42:42.265Z,0.90
2018-01-17T08:45:09.854Z,0.90
2018-01-17T08:47:37.441Z,0.90
2018-01-17T08:50:05.013Z,0.90
2018-01-17T08:52:32.585Z,0.90
2018-01-17T08:55:00.157Z,0.90
2018-01-17T08:57:27.773Z,1.00
2018-01-17T08:59:55.316Z,1.00
2018-01-17T09:02:22.909Z,1.10
2018-01-17T09:04:50.474Z,1.10
2018-01-17T09:07:18.041Z,1.20
2018-01-17T09:09:45.617Z,1.20
2018-01-17T09:12:13.221Z,1.20
2018-01-17T09:14:41.535Z,1.30
2018-01-17T09:17:09.094Z,1.20
2018-01-17T09:19:36.660Z,1.30
2018-01-17T09:22:04.248Z,1.30
2018-01-17T09:24:31.814Z,1.30
2018-01-17T09:26:59.495Z,1.20
2018-01-17T09:29:27.833Z,1.20
2018-01-17T09:31:55.381Z,1.20
2018-01-17T09:34:22.960Z,1.20
2018-01-17T09:36:50.561Z,1.20
2018-01-17T09:39:18.916Z,1.20
2018-01-17T09:41:46.473Z,1.20
2018-01-17T09:44:14.068Z,1.30
2018-01-17T09:46:41.630Z,1.40
2018-01-17T09:49:09.189Z,1.50
2018-01-17T09:51:36.781Z,1.60
2018-01-17T09:54:04.347Z,1.70
2018-01-17T09:56:31.923Z,1.80
2018-01-17T09:58:59.488Z,1.80
2018-01-17T10:01:27.073Z,1.90
2018-01-17T10:03:55.407Z,1.90
2018-01-17T10:06:23.002Z,1.90
2018-01-17T10:08:50.571Z,1.90
2018-01-17T10:11:18.914Z,1.70
2018-01-17T10:13:46.488Z,1.70
2018-01-17T10:16:14.316Z,1.60
2018-01-17T10:18:41.945Z,1.50
2018-01-17T10:21:10.291Z,1.60
2018-01-17T10:23:37.869Z,1.60
2018-01-17T10:26:05.460Z,1.60
2018-01-17T10:28:33.804Z,1.80
2018-01-17T10:31:02.989Z,1.80
2018-01-17T10:33:30.569Z,1.80
2018-01-17T10:35:58.116Z,1.80
2018-01-17T10:38:25.701Z,1.70
2018-01-17T10:40:54.135Z,1.90
2018-01-17T10:43:21.720Z,1.90
2018-01-17T10:45:49.565Z,1.90
2018-01-17T10:48:17.148Z,2.00
2018-01-17T10:50:44.710Z,1.90
2018-01-17T10:53:12.301Z,1.90
2018-01-17T10:55:40.589Z,2.00
2018-01-17T10:58:08.926Z,2.10
2018-01-17T11:00:42.118Z,2.10
2018-01-17T11:03:09.730Z,2.10
2018-01-17T11:05:37.273Z,2.20
2018-01-17T11:08:05.588Z,2.30
2018-01-17T11:10:33.944Z,2.30
2018-01-17T11:13:02.280Z,2.40
2018-01-17T11:15:29.845Z,2.40
2018-01-17T11:17:57.509Z,2.40
2018-01-17T11:20:25.200Z,2.40
2018-01-17T11:22:53.537Z,2.30
2018-01-17T11:25:21.746Z,2.30
2018-01-17T11:27:50.069Z,2.50
2018-01-17T11:30:17.669Z,2.40
2018-01-17T11:32:46.200Z,2.50
2018-01-17T11:35:13.753Z,2.50
2018-01-17T11:37:41.321Z,2.60
2018-01-17T11:40:08.852Z,2.60
2018-01-17T11:42:37.193Z,2.60
2018-01-17T11:45:04.774Z,2.60
2018-01-17T11:47:32.346Z,2.50
2018-01-17T11:50:00.666Z,2.50
2018-01-17T11:52:28.314Z,2.50
2018-01-17T11:54:55.877Z,2.50
2018-01-17T11:57:23.426Z,2.40
2018-01-17T11:59:50.984Z,2.40
2018-01-17T12:02:18.563Z,2.20
2018-01-17T12:04:46.126Z,2.10
2018-01-17T12:07:13.685Z,2.10
2018-01-17T12:09:41.249Z,2.00
2018-01-17T12:12:08.800Z,2.00
2018-01-17T12:14:36.504Z,2.00
2018-01-17T12:17:04.116Z,1.90
2018-01-17T12:19:31.639Z,1.90
2018-01-17T12:21:59.192Z,2.00
2018-01-17T12:24:26.763Z,1.90
2018-01-17T12:26:54.339Z,1.80
2018-01-17T12:29:22.664Z,2.00
2018-01-17T12:31:50.212Z,2.00
2018-01-17T12:34:17.876Z,2.10
2018-01-17T12:36:45.457Z,2.20
2018-01-17T12:39:13.068Z,2.40
2018-01-17T12:41:41.404Z,2.50
2018-01-17T12:44:08.992Z,2.50
2018-01-17T12:46:36.598Z,2.60
2018-01-17T12:49:04.301Z,2.60
2018-01-17T12:51:31.881Z,2.60
2018-01-17T12:53:59.692Z,2.70
2018-01-17T12:56:27.268Z,2.70
2018-01-17T12:58:54.830Z,2.80
2018-01-17T13:01:22.436Z,2.90
2018-01-17T13:03:49.997Z,2.90
2018-01-17T13:06:18.322Z,3.30
2018-01-17T13:08:45.904Z,3.30
2018-01-17T13:11:13.469Z,3.40
2018-01-17T13:13:41.104Z,3.30
2018-01-17T13:16:08.664Z,3.40
2018-01-17T13:18:36.233Z,3.40
2018-01-17T13:21:03.821Z,3.50
2018-01-17T13:23:31.367Z,3.40
2018-01-17T13:25:58.970Z,3.50
2018-01-17T13:28:27.282Z,3.50
2018-01-17T13:30:54.901Z,3.50
2018-01-17T13:33:22.463Z,3.50
2018-01-17T13:35:50.037Z,3.40
2018-01-17T13:38:17.588Z,3.30
2018-01-17T13:40:45.925Z,3.20
2018-01-17T13:43:13.530Z,3.20
2018-01-17T13:45:41.941Z,3.10
2018-01-17T13:48:09.504Z,3.10
2018-01-17T13:50:37.165Z,3.10
2018-01-17T13:53:04.758Z,2.90
2018-01-17T13:55:32.540Z,2.90
2018-01-17T13:58:00.052Z,2.80
2018-01-17T14:00:27.613Z,2.80
2018-01-17T14:02:55.193Z,2.80
2018-01-17T14:05:22.748Z,2.70
2018-01-17T14:07:50.331Z,2.70
2018-01-17T14:10:17.931Z,2.70
2018-01-17T14:12:46.293Z,2.70
2018-01-17T14:15:14.640Z,2.70
2018-01-17T14:17:42.232Z,2.70
2018-01-17T14:20:09.874Z,2.60
2018-01-17T14:22:37.493Z,2.50
2018-01-17T14:25:05.046Z,2.50
2018-01-17T14:27:32.649Z,2.50
2018-01-17T14:30:00.469Z,2.50
2018-01-17T14:32:28.793Z,2.50
2018-01-17T14:34:56.499Z,2.50
2018-01-17T14:37:24.842Z,2.60
2018-01-17T14:39:52.451Z,2.50
2018-01-17T14:42:20.028Z,2.60
2018-01-17T14:44:47.591Z,2.60
2018-01-17T14:47:15.153Z,2.60
2018-01-17T14:49:42.725Z,2.70
2018-01-17T14:52:10.329Z,2.60
2018-01-17T14:54:38.653Z,2.70
2018-01-17T14:57:06.217Z,2.80
2018-01-17T14:59:37.804Z,2.70
2018-01-17T15:02:06.185Z,2.60
2018-01-17T15:04:33.767Z,2.60
2018-01-17T15:07:02.129Z,2.50
2018-01-17T15:09:29.702Z,2.50
2018-01-17T15:11:57.295Z,2.50
2018-01-17T15:14:24.878Z,2.50
2018-01-17T15:16:52.464Z,2.60
2018-01-17T15:19:20.009Z,2.70
2018-01-17T15:21:47.603Z,2.70
2018-01-17T15:24:15.196Z,2.80
2018-01-17T15:26:42.777Z,2.90
2018-01-17T15:29:10.373Z,3.00
2018-01-17T15:31:37.941Z,3.00
2018-01-17T15:34:05.785Z,3.10
2018-01-17T15:36:33.335Z,3.00
2018-01-17T15:39:00.925Z,3.00
2018-01-17T15:41:28.501Z,3.00
2018-01-17T15:43:56.075Z,3.00
2018-01-17T15:46:24.425Z,2.90
2018-01-17T15:48:52.122Z,2.90
2018-01-17T15:51:20.450Z,2.90
2018-01-17T15:53:48.038Z,2.90
2018-01-17T15:56:15.752Z,2.80
2018-01-17T15:58:43.313Z,2.80
2018-01-17T16:01:10.888Z,2.90
2018-01-17T16:03:38.565Z,2.90
2018-01-17T16:06:06.766Z,2.90
2018-01-17T16:08:34.320Z,2.90
2018-01-17T16:11:01.901Z,2.80
2018-01-17T16:13:30.236Z,2.60
2018-01-17T16:15:57.806Z,2.60
2018-01-17T16:18:25.372Z,2.60
2018-01-17T16:20:52.974Z,2.60
2018-01-17T16:23:21.298Z,2.70
2018-01-17T16:25:48.879Z,2.70
2018-01-17T16:28:16.432Z,2.70
2018-01-17T16:30:44.029Z,2.80
2018-01-17T16:33:12.382Z,2.80
2018-01-17T16:35:39.958Z,2.80
2018-01-17T16:38:07.521Z,2.80
2018-01-17T16:40:35.869Z,2.80
2018-01-17T16:43:03.457Z,2.70
2018-01-17T16:45:31.010Z,2.70
2018-01-17T16:47:58.597Z,2.70
2018-01-17T16:50:26.181Z,2.70
2018-01-17T16:52:53.774Z,2.70
2018-01-17T16:55:21.339Z,2.70
2018-01-17T16:57:49.142Z,2.70
2018-01-17T17:00:16.757Z,2.70
2018-01-17T17:02:44.397Z,2.80
2018-01-17T17:05:11.998Z,2.80
2018-01-17T17:07:39.637Z,2.90
2018-01-17T17:10:07.263Z,2.90
2018-01-17T17:12:34.810Z,3.00
2018-01-17T17:15:03.159Z,3.00
2018-01-17T17:17:30.718Z,3.00
2018-01-17T17:19:58.300Z,3.10
2018-01-17T17:22:26.645Z,3.10
2018-01-17T17:24:54.349Z,3.10
2018-01-17T17:27:22.702Z,3.20
2018-01-17T17:29:50.281Z,3.20
2018-01-17T17:32:18.632Z,3.00
2018-01-17T17:34:46.209Z,3.00
2018-01-17T17:37:13.783Z,2.90
2018-01-17T17:39:42.128Z,2.40
2018-01-17T17:42:09.699Z,2.40
2018-01-17T17:44:37.284Z,2.30
2018-01-17T17:47:05.621Z,2.10
2018-01-17T17:49:33.184Z,2.10
2018-01-17T17:52:00.850Z,2.10
2018-01-17T17:54:28.521Z,2.30
2018-01-17T17:56:56.150Z,2.30
2018-01-17T17:59:24.450Z,2.30
2018-01-17T18:01:52.053Z,2.20
2018-01-17T18:04:19.635Z,2.30
2018-01-17T18:06:47.232Z,2.30
2018-01-17T18:09:14.796Z,2.40
2018-01-17T18:11:42.364Z,2.50
2018-01-17T18:14:09.954Z,2.60
2018-01-17T18:16:37.520Z,2.70
2018-01-17T18:19:05.871Z,2.80
2018-01-17T18:21:33.435Z,2.80
2018-01-17T18:24:01.101Z,2.90
2018-01-17T18:26:28.738Z,3.00
2018-01-17T18:28:56.339Z,3.10
2018-01-17T18:31:24.694Z,3.10
2018-01-17T18:33:52.294Z,3.10
2018-01-17T18:36:20.615Z,3.10
2018-01-17T18:38:48.210Z,3.10
2018-01-17T18:41:15.776Z,3.20
2018-01-17T18:43:43.334Z,3.20
2018-01-17T18:46:11.709Z,3.20
2018-01-17T18:48:39.277Z,3.20
2018-01-17T18:51:06.859Z,3.20
2018-01-17T18:53:35.299Z,3.20
2018-01-17T18:56:02.924Z,3.20
2018-01-17T18:58:30.516Z,3.10
2018-01-17T19:00:58.108Z,3.00
2018-01-17T19:03:26.437Z,3.00
2018-01-17T19:05:54.853Z,3.00
2018-01-17T19:08:22.458Z,3.00
2018-01-17T19:10:50.741Z,3.00
2018-01-17T19:13:18.361Z,2.90
2018-01-17T19:15:45.964Z,3.00
2018-01-17T19:18:13.569Z,2.90
2018-01-17T19:20:41.210Z,3.00
2018-01-17T19:23:08.800Z,3.00
2018-01-17T19:25:36.372Z,3.10
2018-01-17T19:28:04.739Z,3.20
2018-01-17T19:30:32.323Z,3.20
2018-01-17T19:33:00.728Z,3.30
2018-01-17T19:35:28.321Z,3.20
2018-01-17T19:37:55.913Z,3.20
2018-01-17T19:40:24.657Z,3.10
2018-01-17T19:42:52.318Z,3.10
2018-01-17T19:45:19.885Z,3.00
2018-01-17T19:47:47.478Z,2.90
2018-01-17T19:50:15.068Z,2.80
2018-01-17T19:52:43.477Z,2.60
2018-01-17T19:55:11.787Z,2.60
2018-01-17T19:57:39.376Z,2.60
2018-01-17T20:00:07.734Z,2.60
2018-01-17T20:02:35.356Z,2.60
2018-01-17T20:05:02.949Z,2.60
2018-01-17T20:07:30.528Z,2.60
2018-01-17T20:09:58.103Z,2.50
2018-01-17T20:12:26.461Z,2.60
2018-01-17T20:14:54.117Z,2.60
2018-01-17T20:17:21.683Z,2.60
2018-01-17T20:19:49.285Z,2.70
2018-01-17T20:22:17.831Z,2.70
2018-01-17T20:24:45.399Z,2.70
2018-01-17T20:27:13.745Z,2.70
2018-01-17T20:29:41.339Z,2.70
2018-01-17T20:32:08.970Z,2.60
2018-01-17T20:34:36.989Z,2.70
2018-01-17T20:37:06.442Z,2.80
2018-01-17T20:39:42.879Z,2.80
2018-01-17T20:42:10.477Z,2.90
2018-01-17T20:44:38.111Z,3.00
2018-01-17T20:47:06.052Z,3.00
2018-01-17T20:49:34.383Z,3.00
2018-01-17T20:52:01.946Z,3.00
2018-01-17T20:54:29.772Z,3.00
2018-01-17T20:56:57.473Z,3.00
2018-01-17T20:59:25.121Z,2.90
2018-01-17T21:01:52.718Z,2.90
2018-01-17T21:04:20.346Z,2.90
2018-01-17T21:06:47.998Z,2.90
2018-01-17T21:09:15.614Z,3.00
2018-01-17T21:11:44.141Z,3.00
2018-01-17T21:14:12.885Z,3.00
2018-01-17T21:16:40.486Z,3.00
2018-01-17T21:19:08.049Z,3.10
2018-01-17T21:21:35.597Z,3.00
2018-01-17T21:24:03.156Z,3.10
2018-01-17T21:26:30.853Z,3.10
2018-01-17T21:28:59.140Z,3.00
2018-01-17T21:31:27.081Z,3.00
2018-01-17T21:33:54.785Z,2.90
2018-01-17T21:36:22.360Z,2.90
2018-01-17T21:38:49.925Z,2.90
2018-01-17T21:41:17.521Z,2.90
2018-01-17T21:43:50.763Z,2.80
2018-01-17T21:46:18.354Z,2.80
2018-01-17T21:48:46.823Z,2.60
2018-01-17T21:51:15.185Z,2.50
2018-01-17T21:53:42.809Z,2.50
2018-01-17T21:56:10.376Z,2.50
2018-01-17T21:58:38.106Z,2.60
2018-01-17T22:01:06.439Z,2.50
2018-01-17T22:03:34.036Z,2.50
2018-01-17T22:06:01.593Z,2.60
2018-01-17T22:08:30.174Z,2.60
2018-01-17T22:10:57.880Z,2.60
2018-01-17T22:13:25.473Z,2.60
2018-01-17T22:15:53.057Z,1.80
2018-01-17T22:18:20.645Z,2.70
2018-01-17T22:20:48.221Z,2.70
2018-01-17T22:23:15.977Z,2.70
2018-01-17T22:25:43.546Z,2.70
2018-01-17T22:28:11.120Z,2.70
2018-01-17T22:30:38.978Z,2.70
2018-01-17T22:33:06.535Z,2.80
2018-01-17T22:35:34.105Z,2.90
2018-01-17T22:38:01.685Z,2.90
2018-01-17T22:40:29.255Z,2.90
2018-01-17T22:42:56.830Z,2.80
2018-01-17T22:45:24.439Z,2.80
2018-01-17T22:47:51.984Z,2.80
2018-01-17T22:50:19.614Z,2.80
2018-01-17T22:52:47.173Z,2.80
2018-01-17T22:55:14.739Z,2.80
2018-01-17T22:57:42.776Z,2.80
2018-01-17T23:00:10.364Z,2.80
2018-01-17T23:02:37.941Z,2.80
2018-01-17T23:05:06.273Z,2.80
2018-01-17T23:07:33.847Z,2.80
2018-01-17T23:10:01.433Z,2.80
2018-01-17T23:12:28.997Z,2.90
2018-01-17T23:14:56.667Z,3.00
2018-01-17T23:17:25.024Z,3.20
2018-01-17T23:19:52.582Z,3.20
2018-01-17T23:22:20.245Z,3.20
2018-01-17T23:24:47.810Z,3.30
2018-01-17T23:27:15.418Z,3.30
2018-01-17T23:29:43.929Z,3.40
2018-01-17T23:32:11.509Z,3.40
2018-01-17T23:34:39.068Z,3.40
2018-01-17T23:37:07.317Z,3.30
2018-01-17T23:39:34.908Z,3.30
2018-01-17T23:42:02.456Z,3.20
2018-01-17T23:44:30.642Z,3.30
2018-01-17T23:46:58.251Z,3.30
2018-01-17T23:49:25.850Z,3.30
2018-01-17T23:51:53.454Z,3.30
2018-01-17T23:54:21.870Z,3.30
2018-01-17T23:56:49.436Z,3.30
2018-01-17T23:59:17.009Z,3.30
